Time;durP1;ratioP1;P1;durP2;ratioP2;P2;SDS_P1;SDS_P2;PMS_P1;PMS_P2;Temp;Humidity;BMP_temperature;BMP_pressure;BME280_temperature;BME280_humidity;BME280_pressure;Samples;Min_cycle;Max_cycle;Signal;HPM_P1;HPM_P2
2021/07/02 00:02:01;;;;;;;;;26.75;24.25;;;;;;;;5050853;28;46100;-77
2021/07/02 00:04:26;;;;;;;;;26.00;22.00;;;;;;;;5051945;28;45488;-77
2021/07/02 00:06:51;;;;;;;;;24.75;22.00;;;;;;;;5058887;28;45669;-77
2021/07/02 00:09:17;;;;;;;;;26.33;24.67;;;;;;;;5051673;28;45615;-77
2021/07/02 00:11:42;;;;;;;;;27.33;23.67;;;;;;;;5054098;28;45560;-78
2021/07/02 00:14:07;;;;;;;;;32.00;23.00;;;;;;;;5051096;28;45554;-76
2021/07/02 00:16:35;;;;;;;;;19.25;18.25;;;;;;;;5055054;28;45510;-78
2021/07/02 00:19:01;;;;;;;;;25.50;19.50;;;;;;;;5053120;28;45568;-77
2021/07/02 00:21:26;;;;;;;;;24.50;22.25;;;;;;;;5050843;28;46245;-77
2021/07/02 00:23:51;;;;;;;;;21.67;21.00;;;;;;;;5052358;28;45509;-77
2021/07/02 00:26:16;;;;;;;;;24.33;19.00;;;;;;;;5061708;28;45478;-76
2021/07/02 00:28:41;;;;;;;;;31.00;24.67;;;;;;;;5050674;28;45480;-77
2021/07/02 00:31:07;;;;;;;;;27.33;24.67;;;;;;;;5052260;28;48436;-77
2021/07/02 00:33:32;;;;;;;;;27.00;23.33;;;;;;;;5050846;28;45595;-76
2021/07/02 00:35:57;;;;;;;;;37.00;30.50;;;;;;;;5051186;28;45497;-77
2021/07/02 00:38:22;;;;;;;;;35.00;29.00;;;;;;;;5051148;28;45464;-78
2021/07/02 00:40:48;;;;;;;;;34.67;31.00;;;;;;;;5053598;28;46219;-76
2021/07/02 00:43:13;;;;;;;;;30.33;27.33;;;;;;;;5051431;28;45795;-77
2021/07/02 00:45:38;;;;;;;;;37.67;29.33;;;;;;;;5051434;28;45481;-78
2021/07/02 00:48:04;;;;;;;;;36.00;31.75;;;;;;;;5052115;28;45497;-76
2021/07/02 00:50:30;;;;;;;;;36.00;30.00;;;;;;;;5060395;28;47904;-76
2021/07/02 00:52:55;;;;;;;;;31.75;28.25;;;;;;;;5061708;28;45381;-76
2021/07/02 00:55:20;;;;;;;;;36.50;29.00;;;;;;;;5061155;28;45366;-77
2021/07/02 00:57:46;;;;;;;;;30.33;26.33;;;;;;;;5055168;28;45407;-77
2021/07/02 01:00:12;;;;;;;;;35.25;30.50;;;;;;;;5053673;28;51454;-77
2021/07/02 01:02:38;;;;;;;;;33.50;28.75;;;;;;;;5051267;28;45691;-77
2021/07/02 01:05:05;;;;;;;;;29.00;28.25;;;;;;;;5059557;28;45652;-77
2021/07/02 01:07:30;;;;;;;;;31.00;29.25;;;;;;;;5049377;28;45463;-77
2021/07/02 01:09:56;;;;;;;;;32.50;27.75;;;;;;;;5048687;28;45429;-77
2021/07/02 01:12:21;;;;;;;;;36.75;31.50;;;;;;;;5055868;28;45600;-77
2021/07/02 01:14:46;;;;;;;;;36.00;28.00;;;;;;;;5051620;28;45596;-77
2021/07/02 01:17:12;;;;;;;;;34.67;25.33;;;;;;;;5054045;28;45515;-77
2021/07/02 01:19:44;;;;;;;;;29.67;28.67;;;;;;;;5052071;28;45491;-76
2021/07/02 01:22:09;;;;;;;;;28.75;28.75;;;;;;;;5052157;28;45329;-76
2021/07/02 01:24:34;;;;;;;;;28.00;24.75;;;;;;;;5050907;28;45466;-77
2021/07/02 01:27:00;;;;;;;;;31.33;28.33;;;;;;;;5048193;28;45394;-77
2021/07/02 01:29:26;;;;;;;;;23.50;23.50;;;;;;;;5049014;28;45374;-76
2021/07/02 01:31:51;;;;;;;;;26.33;23.00;;;;;;;;5049937;28;45609;-76
2021/07/02 01:34:16;;;;;;;;;30.00;25.67;;;;;;;;5050254;28;45804;-76
2021/07/02 01:36:41;;;;;;;;;34.00;26.75;;;;;;;;5049263;28;45586;-76
2021/07/02 01:39:07;;;;;;;;;32.50;25.00;;;;;;;;5049768;28;45466;-76
2021/07/02 01:41:32;;;;;;;;;24.75;22.00;;;;;;;;5051383;28;45501;-76
2021/07/02 01:43:57;;;;;;;;;27.50;23.75;;;;;;;;5049817;28;45421;-76
2021/07/02 01:46:22;;;;;;;;;27.00;23.67;;;;;;;;5049509;28;45468;-76
2021/07/02 01:48:48;;;;;;;;;24.67;23.67;;;;;;;;5050559;28;45373;-76
2021/07/02 01:51:13;;;;;;;;;30.00;22.67;;;;;;;;5051165;28;45339;-76
2021/07/02 01:53:38;;;;;;;;;25.00;22.50;;;;;;;;5051112;28;45539;-76
2021/07/02 01:56:04;;;;;;;;;23.50;22.25;;;;;;;;5050888;28;45487;-76
2021/07/02 01:58:30;;;;;;;;;27.75;24.50;;;;;;;;5049548;28;46655;-76
2021/07/02 02:00:57;;;;;;;;;28.75;24.25;;;;;;;;5052863;28;45385;-77
2021/07/02 02:03:22;;;;;;;;;25.00;24.50;;;;;;;;5045407;28;45689;-77
2021/07/02 02:05:48;;;;;;;;;28.50;25.25;;;;;;;;5045858;28;45415;-76
2021/07/02 02:08:14;;;;;;;;;28.00;21.50;;;;;;;;5050729;28;45541;-76
2021/07/02 02:10:39;;;;;;;;;27.50;25.25;;;;;;;;5050991;28;45491;-76
2021/07/02 02:13:04;;;;;;;;;26.00;22.00;;;;;;;;5052798;28;45320;-76
2021/07/02 02:15:29;;;;;;;;;29.00;23.33;;;;;;;;5054185;28;45353;-76
2021/07/02 02:17:54;;;;;;;;;27.33;21.67;;;;;;;;5048902;28;45520;-77
2021/07/02 02:20:20;;;;;;;;;29.25;21.50;;;;;;;;5049107;28;45422;-76
2021/07/02 02:22:45;;;;;;;;;24.33;19.00;;;;;;;;5050716;28;45585;-76
2021/07/02 02:25:10;;;;;;;;;24.67;20.67;;;;;;;;5050285;28;45654;-77
2021/07/02 02:27:36;;;;;;;;;30.25;25.25;;;;;;;;5049433;28;45509;-76
2021/07/02 02:30:02;;;;;;;;;24.50;22.50;;;;;;;;5050589;28;45606;-76
2021/07/02 02:32:27;;;;;;;;;24.50;22.25;;;;;;;;5048096;28;45570;-77
2021/07/02 02:34:52;;;;;;;;;28.33;22.67;;;;;;;;5050599;28;45410;-77
2021/07/02 02:37:18;;;;;;;;;27.33;24.33;;;;;;;;5050228;28;45513;-76
2021/07/02 02:39:43;;;;;;;;;27.00;21.00;;;;;;;;5055792;28;45515;-76
2021/07/02 02:42:08;;;;;;;;;23.67;21.67;;;;;;;;5053510;28;45496;-76
2021/07/02 02:44:33;;;;;;;;;26.33;25.67;;;;;;;;5054503;28;45489;-76
2021/07/02 02:46:59;;;;;;;;;28.00;23.33;;;;;;;;5052838;28;48089;-77
2021/07/02 02:49:24;;;;;;;;;26.67;24.33;;;;;;;;5049390;28;45438;-76
2021/07/02 02:51:51;;;;;;;;;27.00;24.25;;;;;;;;5047519;28;45485;-76
2021/07/02 02:54:16;;;;;;;;;29.75;28.25;;;;;;;;5052777;28;45503;-76
2021/07/02 02:59:24;;;;;;;;;27.25;24.50;;;;;;;;5046176;28;45493;-76
2021/07/02 03:01:50;;;;;;;;;27.67;22.67;;;;;;;;5053754;28;45537;-77
2021/07/02 03:04:15;;;;;;;;;30.00;26.67;;;;;;;;5053553;28;45457;-76
2021/07/02 03:06:40;;;;;;;;;24.67;24.67;;;;;;;;5052250;28;45751;-77
2021/07/02 03:09:05;;;;;;;;;24.00;22.33;;;;;;;;5053562;28;45381;-76
2021/07/02 03:11:31;;;;;;;;;25.00;21.67;;;;;;;;5052678;28;45420;-76
2021/07/02 03:13:56;;;;;;;;;25.67;20.00;;;;;;;;5053457;28;45581;-76
2021/07/02 03:16:21;;;;;;;;;28.33;21.67;;;;;;;;5056646;28;45699;-76
2021/07/02 03:18:46;;;;;;;;;26.00;22.00;;;;;;;;5053056;28;45507;-76
2021/07/02 03:21:11;;;;;;;;;30.67;27.67;;;;;;;;5052913;28;45477;-76
2021/07/02 03:23:37;;;;;;;;;33.67;28.67;;;;;;;;5049974;28;45641;-77
2021/07/02 03:26:02;;;;;;;;;33.33;24.00;;;;;;;;5050610;28;45566;-77
2021/07/02 03:28:27;;;;;;;;;27.33;26.00;;;;;;;;5050982;28;45572;-77
2021/07/02 03:30:52;;;;;;;;;31.33;28.67;;;;;;;;5049281;28;45371;-77
2021/07/02 03:33:17;;;;;;;;;29.33;28.33;;;;;;;;5048909;28;45684;-76
2021/07/02 03:35:43;;;;;;;;;29.67;22.67;;;;;;;;5050824;28;45610;-76
2021/07/02 03:38:08;;;;;;;;;33.00;28.00;;;;;;;;5061457;28;45520;-76
2021/07/02 03:40:33;;;;;;;;;37.00;30.67;;;;;;;;5052719;28;45461;-77
2021/07/02 03:42:58;;;;;;;;;35.25;32.50;;;;;;;;5059096;28;45269;-78
2021/07/02 03:45:24;;;;;;;;;42.33;36.67;;;;;;;;5051043;28;46523;-77
2021/07/02 03:47:49;;;;;;;;;44.50;34.25;;;;;;;;5052388;28;45473;-76
2021/07/02 03:50:14;;;;;;;;;43.67;33.33;;;;;;;;5046282;28;45529;-76
2021/07/02 03:52:40;;;;;;;;;38.00;30.33;;;;;;;;5051501;28;45346;-77
2021/07/02 03:55:06;;;;;;;;;40.00;33.75;;;;;;;;5064215;28;46454;-77
2021/07/02 03:57:31;;;;;;;;;36.00;32.25;;;;;;;;5049831;28;45587;-78
2021/07/02 03:59:56;;;;;;;;;41.00;32.67;;;;;;;;5050726;28;45868;-78
2021/07/02 04:02:21;;;;;;;;;38.67;32.67;;;;;;;;5051780;28;45763;-77
2021/07/02 04:04:47;;;;;;;;;41.67;30.33;;;;;;;;5050388;28;45627;-77
2021/07/02 04:07:12;;;;;;;;;41.50;34.75;;;;;;;;5040813;28;45449;-79
2021/07/02 04:09:41;;;;;;;;;41.75;32.50;;;;;;;;5046425;28;45509;-79
2021/07/02 04:12:14;;;;;;;;;39.50;31.50;;;;;;;;5051544;28;45585;-78
2021/07/02 04:14:40;;;;;;;;;46.25;35.50;;;;;;;;5051969;28;45434;-78
2021/07/02 04:17:05;;;;;;;;;42.25;33.00;;;;;;;;5057181;28;45611;-78
2021/07/02 04:19:30;;;;;;;;;41.00;33.25;;;;;;;;5051249;28;45438;-78
2021/07/02 04:21:56;;;;;;;;;43.00;31.75;;;;;;;;5053045;28;45510;-78
2021/07/02 04:24:26;;;;;;;;;41.75;33.50;;;;;;;;5051820;28;48326;-78
2021/07/02 04:27:07;;;;;;;;;44.50;35.50;;;;;;;;5050229;28;46160;-78
2021/07/02 04:29:33;;;;;;;;;47.00;34.25;;;;;;;;5051199;28;45473;-78
2021/07/02 04:31:58;;;;;;;;;41.67;34.33;;;;;;;;5051590;28;45487;-78
2021/07/02 04:34:23;;;;;;;;;42.00;32.75;;;;;;;;5064272;28;45462;-78
2021/07/02 04:36:48;;;;;;;;;39.33;33.67;;;;;;;;5052019;28;45355;-78
2021/07/02 04:39:14;;;;;;;;;48.33;34.33;;;;;;;;5049056;28;45461;-78
2021/07/02 04:41:39;;;;;;;;;41.00;33.50;;;;;;;;5051155;28;45537;-78
2021/07/02 04:44:04;;;;;;;;;41.67;34.67;;;;;;;;5056293;28;45486;-79
2021/07/02 04:46:30;;;;;;;;;39.33;33.67;;;;;;;;5054613;28;45406;-78
2021/07/02 04:48:55;;;;;;;;;39.25;34.25;;;;;;;;5048633;28;46015;-78
2021/07/02 04:51:20;;;;;;;;;39.67;34.00;;;;;;;;5046110;28;45355;-78
2021/07/02 04:53:45;;;;;;;;;41.00;32.00;;;;;;;;5042519;28;45583;-78
2021/07/02 04:56:12;;;;;;;;;38.33;34.00;;;;;;;;5049936;28;45488;-78
2021/07/02 04:58:38;;;;;;;;;34.50;32.50;;;;;;;;5051401;28;45508;-78
2021/07/02 05:01:03;;;;;;;;;38.50;32.50;;;;;;;;5064847;28;45379;-79
2021/07/02 05:03:28;;;;;;;;;38.33;32.00;;;;;;;;4947203;27;46421;-78
2021/07/02 05:05:53;;;;;;;;;34.00;30.33;;;;;;;;5058199;27;45370;-79
2021/07/02 05:08:20;;;;;;;;;39.33;32.67;;;;;;;;5050121;28;45442;-78
2021/07/02 05:10:45;;;;;;;;;38.50;32.75;;;;;;;;5051697;28;45313;-78
2021/07/02 05:13:10;;;;;;;;;36.00;31.33;;;;;;;;5063840;28;47108;-78
2021/07/02 05:15:35;;;;;;;;;38.25;32.50;;;;;;;;5056333;28;45472;-78
2021/07/02 05:18:01;;;;;;;;;34.67;29.33;;;;;;;;5053679;28;45456;-78
2021/07/02 05:20:26;;;;;;;;;32.00;29.33;;;;;;;;5060576;28;45278;-78
2021/07/02 05:22:51;;;;;;;;;45.00;36.67;;;;;;;;5060798;28;45513;-78
2021/07/02 05:25:18;;;;;;;;;34.33;31.00;;;;;;;;5063779;28;45495;-78
2021/07/02 05:27:44;;;;;;;;;35.00;31.00;;;;;;;;5052822;28;45488;-78
2021/07/02 05:30:09;;;;;;;;;38.50;32.75;;;;;;;;5049108;28;45229;-78
2021/07/02 05:32:34;;;;;;;;;38.25;31.75;;;;;;;;5049325;28;45325;-78
2021/07/02 05:34:59;;;;;;;;;33.33;29.33;;;;;;;;5049963;28;45359;-78
2021/07/02 05:37:25;;;;;;;;;29.33;27.00;;;;;;;;5048891;28;45494;-78
2021/07/02 05:39:50;;;;;;;;;31.00;28.25;;;;;;;;5067721;28;45511;-78
2021/07/02 05:42:21;;;;;;;;;35.00;30.33;;;;;;;;5050956;28;45422;-78
2021/07/02 05:44:47;;;;;;;;;32.50;29.50;;;;;;;;5048767;28;45945;-78
2021/07/02 05:47:12;;;;;;;;;39.75;31.25;;;;;;;;5050645;28;45485;-77
2021/07/02 05:49:37;;;;;;;;;33.67;28.00;;;;;;;;5051671;28;45583;-78
2021/07/02 05:52:03;;;;;;;;;36.33;27.33;;;;;;;;5058392;28;47400;-78
2021/07/02 05:54:29;;;;;;;;;29.00;26.33;;;;;;;;5055697;28;45433;-77
2021/07/02 05:56:54;;;;;;;;;33.75;30.50;;;;;;;;5056548;28;45400;-77
2021/07/02 05:59:19;;;;;;;;;37.33;32.33;;;;;;;;5058714;28;45712;-78
2021/07/02 06:01:44;;;;;;;;;36.00;29.00;;;;;;;;5052413;28;46481;-78
2021/07/02 06:04:10;;;;;;;;;34.67;31.00;;;;;;;;5052170;28;45288;-77
2021/07/02 06:06:35;;;;;;;;;33.00;28.67;;;;;;;;5048474;28;45621;-77
2021/07/02 06:09:01;;;;;;;;;37.00;30.33;;;;;;;;5048667;28;45780;-77
2021/07/02 06:11:26;;;;;;;;;32.25;29.75;;;;;;;;5051038;28;48851;-77
2021/07/02 06:13:52;;;;;;;;;35.33;29.00;;;;;;;;5064677;28;46115;-77
2021/07/02 06:16:17;;;;;;;;;31.25;28.25;;;;;;;;5053159;28;45825;-77
2021/07/02 06:18:42;;;;;;;;;30.67;27.33;;;;;;;;5055495;28;45364;-77
2021/07/02 06:21:08;;;;;;;;;32.25;29.75;;;;;;;;4975190;27;46171;-77
2021/07/02 06:23:34;;;;;;;;;36.50;31.25;;;;;;;;5047143;28;45501;-77
2021/07/02 06:26:01;;;;;;;;;33.50;29.00;;;;;;;;5006392;27;45610;-77
2021/07/02 06:28:27;;;;;;;;;39.00;33.00;;;;;;;;5047422;28;45358;-77
2021/07/02 06:30:53;;;;;;;;;37.25;31.50;;;;;;;;5055789;28;46208;-78
2021/07/02 06:33:18;;;;;;;;;37.00;31.33;;;;;;;;5051780;28;45784;-77
2021/07/02 06:35:43;;;;;;;;;33.33;30.00;;;;;;;;5048078;28;45359;-77
2021/07/02 06:38:09;;;;;;;;;34.00;30.75;;;;;;;;5055518;28;45538;-75
2021/07/02 06:40:34;;;;;;;;;30.00;26.67;;;;;;;;5046622;28;45505;-77
2021/07/02 06:42:59;;;;;;;;;36.25;31.25;;;;;;;;5056984;28;45410;-77
2021/07/02 06:45:24;;;;;;;;;34.67;30.33;;;;;;;;5052358;28;45696;-76
2021/07/02 06:47:57;;;;;;;;;32.00;29.75;;;;;;;;5053059;28;45501;-76
2021/07/02 06:50:27;;;;;;;;;36.75;32.00;;;;;;;;5053231;28;45581;-79
2021/07/02 06:52:52;;;;;;;;;28.50;24.25;;;;;;;;5053727;28;45458;-76
2021/07/02 06:55:17;;;;;;;;;35.00;30.25;;;;;;;;5048201;28;45311;-76
2021/07/02 06:57:43;;;;;;;;;30.00;25.25;;;;;;;;5052361;28;45621;-77
2021/07/02 07:00:08;;;;;;;;;24.75;21.75;;;;;;;;5054485;28;48128;-78
2021/07/02 07:02:34;;;;;;;;;29.75;26.00;;;;;;;;5053629;28;45435;-76
2021/07/02 07:05:02;;;;;;;;;28.50;25.75;;;;;;;;5052779;28;45355;-77
2021/07/02 07:07:27;;;;;;;;;29.50;24.50;;;;;;;;5052456;28;45374;-76
2021/07/02 07:09:53;;;;;;;;;28.25;20.25;;;;;;;;5054091;28;45355;-78
2021/07/02 07:12:18;;;;;;;;;30.67;25.67;;;;;;;;5052792;28;45363;-77
2021/07/02 07:14:43;;;;;;;;;26.33;24.33;;;;;;;;5052594;28;45203;-77
2021/07/02 07:17:11;;;;;;;;;23.50;22.00;;;;;;;;5052357;28;45428;-77
2021/07/02 07:19:37;;;;;;;;;29.00;26.75;;;;;;;;5051226;28;46112;-77
2021/07/02 07:22:03;;;;;;;;;31.00;25.00;;;;;;;;5054355;28;45953;-55
2021/07/02 07:24:28;;;;;;;;;34.50;28.25;;;;;;;;5052517;28;45578;-53
2021/07/02 07:26:54;;;;;;;;;30.33;24.00;;;;;;;;5038565;28;45500;-55
2021/07/02 07:29:19;;;;;;;;;30.50;27.25;;;;;;;;5048328;28;46300;-55
2021/07/02 07:31:44;;;;;;;;;29.67;24.00;;;;;;;;5051672;28;45473;-55
2021/07/02 07:34:10;;;;;;;;;37.00;29.50;;;;;;;;5054570;28;45959;-53
2021/07/02 07:36:37;;;;;;;;;42.50;31.25;;;;;;;;5049163;28;45921;-55
2021/07/02 07:39:02;;;;;;;;;32.25;29.25;;;;;;;;5051246;28;47243;-54
2021/07/02 07:41:28;;;;;;;;;33.25;27.50;;;;;;;;5051970;28;45475;-54
2021/07/02 07:43:53;;;;;;;;;34.00;25.00;;;;;;;;5051646;28;45642;-53
2021/07/02 07:46:18;;;;;;;;;33.33;28.00;;;;;;;;5052843;28;45431;-53
2021/07/02 07:48:43;;;;;;;;;20.67;20.00;;;;;;;;5052883;28;47465;-55
2021/07/02 07:54:00;;;;;;;;;30.50;28.00;;;;;;;;5010664;28;45450;-55
2021/07/02 07:56:26;;;;;;;;;28.75;24.50;;;;;;;;5005518;28;45443;-54
2021/07/02 07:58:52;;;;;;;;;27.25;25.75;;;;;;;;5006720;28;47128;-55
2021/07/02 08:01:17;;;;;;;;;32.00;29.00;;;;;;;;5007828;28;45541;-54
2021/07/02 08:03:42;;;;;;;;;34.67;26.00;;;;;;;;5011782;28;46745;-54
2021/07/02 08:06:08;;;;;;;;;27.33;25.33;;;;;;;;5004427;28;45370;-55
2021/07/02 08:08:33;;;;;;;;;24.25;20.00;;;;;;;;5005281;28;45537;-65
2021/07/02 08:10:58;;;;;;;;;28.67;27.67;;;;;;;;5006869;28;45476;-54
2021/07/02 08:13:28;;;;;;;;;24.25;20.50;;;;;;;;5027286;28;45471;-54
2021/07/02 08:15:53;;;;;;;;;23.25;20.50;;;;;;;;5010555;28;45592;-54
2021/07/02 08:18:18;;;;;;;;;25.33;21.33;;;;;;;;5003964;28;46391;-56
2021/07/02 08:20:43;;;;;;;;;23.33;21.33;;;;;;;;5004723;28;45626;-56
2021/07/02 08:23:09;;;;;;;;;22.67;20.33;;;;;;;;5002041;28;45547;-56
2021/07/02 08:25:36;;;;;;;;;21.50;21.25;;;;;;;;5009842;28;45670;-56
2021/07/02 08:30:45;;;;;;;;;24.00;21.75;;;;;;;;5038834;28;45471;-55
2021/07/02 08:33:16;;;;;;;;;20.67;17.67;;;;;;;;5057107;28;45375;-56
2021/07/02 08:35:41;;;;;;;;;21.25;19.25;;;;;;;;5057736;28;45409;-55
2021/07/02 08:38:06;;;;;;;;;25.67;20.67;;;;;;;;5056710;28;46342;-55
2021/07/02 08:40:31;;;;;;;;;20.67;20.67;;;;;;;;5061281;28;45366;-55
2021/07/02 08:42:57;;;;;;;;;27.67;23.00;;;;;;;;5060975;28;45652;-56
2021/07/02 08:45:22;;;;;;;;;24.33;21.33;;;;;;;;5054558;28;45428;-55
2021/07/02 08:47:47;;;;;;;;;25.50;18.75;;;;;;;;5057050;28;46576;-57
2021/07/02 08:50:13;;;;;;;;;23.33;21.67;;;;;;;;5061510;28;45431;-55
2021/07/02 08:52:38;;;;;;;;;27.50;21.75;;;;;;;;5061529;28;45353;-54
2021/07/02 08:55:04;;;;;;;;;24.00;21.33;;;;;;;;5064769;28;45339;-54
2021/07/02 08:57:31;;;;;;;;;21.00;21.00;;;;;;;;5051915;28;45532;-55
2021/07/02 08:59:56;;;;;;;;;20.25;19.25;;;;;;;;5050263;28;45754;-56
2021/07/02 09:02:29;;;;;;;;;22.00;20.00;;;;;;;;5060866;28;45467;-54
2021/07/02 09:04:54;;;;;;;;;20.75;19.50;;;;;;;;5053756;28;45434;-56
2021/07/02 09:07:19;;;;;;;;;23.33;17.33;;;;;;;;5055903;28;46375;-55
2021/07/02 09:09:46;;;;;;;;;23.00;19.67;;;;;;;;5058889;28;45439;-56
2021/07/02 09:12:12;;;;;;;;;17.00;17.00;;;;;;;;5056585;28;45446;-57
2021/07/02 09:14:37;;;;;;;;;18.25;17.00;;;;;;;;5054195;28;45638;-56
2021/07/02 09:17:10;;;;;;;;;20.33;18.67;;;;;;;;5059131;28;46201;-56
2021/07/02 09:19:35;;;;;;;;;18.25;18.00;;;;;;;;5062171;28;45392;-56
2021/07/02 09:22:19;;;;;;;;;17.25;16.25;;;;;;;;5061943;28;45358;-56
2021/07/02 09:24:46;;;;;;;;;15.75;15.50;;;;;;;;5061080;28;45636;-56
2021/07/02 09:27:40;;;;;;;;;17.25;17.25;;;;;;;;5055673;28;45401;-56
2021/07/02 09:30:08;;;;;;;;;17.75;15.50;;;;;;;;5046724;28;45403;-56
2021/07/02 09:32:36;;;;;;;;;14.00;13.25;;;;;;;;5058825;28;45584;-54
2021/07/02 09:35:02;;;;;;;;;15.25;14.75;;;;;;;;5050517;28;45424;-57
2021/07/02 09:37:29;;;;;;;;;20.75;14.75;;;;;;;;5062507;28;45371;-56
2021/07/02 09:39:55;;;;;;;;;14.50;12.25;;;;;;;;5057830;28;46076;-56
2021/07/02 09:42:27;;;;;;;;;20.00;14.00;;;;;;;;5056292;28;45451;-56
2021/07/02 09:45:09;;;;;;;;;15.00;14.25;;;;;;;;5056940;28;45483;-56
2021/07/02 09:47:34;;;;;;;;;16.25;16.25;;;;;;;;5051810;28;46393;-56
2021/07/02 09:50:17;;;;;;;;;12.75;12.25;;;;;;;;5057152;28;45477;-56
2021/07/02 09:52:47;;;;;;;;;10.25;10.25;;;;;;;;5045077;28;45513;-56
2021/07/02 09:55:14;;;;;;;;;17.00;13.00;;;;;;;;5056220;28;45430;-57
2021/07/02 09:57:39;;;;;;;;;10.00;8.50;;;;;;;;5052970;28;46505;-57
2021/07/02 10:00:05;;;;;;;;;13.00;13.00;;;;;;;;5052150;28;45377;-59
2021/07/02 10:02:31;;;;;;;;;14.50;14.50;;;;;;;;5054382;28;45490;-58
2021/07/02 10:04:59;;;;;;;;;15.00;15.00;;;;;;;;5063525;28;45613;-56
2021/07/02 10:07:25;;;;;;;;;14.00;13.75;;;;;;;;5064046;28;45627;-56
2021/07/02 10:09:50;;;;;;;;;17.00;14.75;;;;;;;;5051273;28;45518;-56
2021/07/02 10:12:16;;;;;;;;;14.67;13.00;;;;;;;;5047621;28;45523;-56
2021/07/02 10:14:42;;;;;;;;;15.00;13.25;;;;;;;;5045799;28;45550;-55
2021/07/02 10:17:08;;;;;;;;;16.00;14.75;;;;;;;;5048794;28;47076;-58
2021/07/02 10:19:34;;;;;;;;;13.25;12.50;;;;;;;;5051895;28;45496;-56
2021/07/02 10:21:59;;;;;;;;;17.00;14.25;;;;;;;;5054558;28;45465;-56
2021/07/02 10:24:25;;;;;;;;;13.00;13.00;;;;;;;;5053204;28;45328;-56
2021/07/02 10:26:50;;;;;;;;;15.75;14.25;;;;;;;;5050870;28;46052;-57
2021/07/02 10:29:16;;;;;;;;;15.25;13.00;;;;;;;;5051314;28;45711;-55
2021/07/02 10:31:41;;;;;;;;;13.25;11.75;;;;;;;;5050977;28;45517;-52
2021/07/02 10:34:09;;;;;;;;;15.33;12.67;;;;;;;;5054899;28;45396;-56
2021/07/02 10:36:37;;;;;;;;;16.00;12.75;;;;;;;;5048715;28;45537;-54
2021/07/02 10:39:03;;;;;;;;;13.00;13.00;;;;;;;;5067189;27;45496;-56
2021/07/02 10:41:31;;;;;;;;;15.75;11.50;;;;;;;;5050754;28;46028;-53
2021/07/02 10:44:10;;;;;;;;;11.25;11.25;;;;;;;;5048427;28;45514;-57
2021/07/02 10:46:37;;;;;;;;;12.00;10.25;;;;;;;;5049641;28;46160;-56
2021/07/02 10:49:11;;;;;;;;;13.00;11.00;;;;;;;;5053735;28;45481;-56
2021/07/02 10:51:39;;;;;;;;;11.75;11.00;;;;;;;;5050510;28;45398;-57
2021/07/02 10:54:17;;;;;;;;;15.25;11.00;;;;;;;;5043753;28;45754;-56
2021/07/02 10:57:01;;;;;;;;;12.75;12.00;;;;;;;;5046978;28;46843;-57
2021/07/02 10:59:46;;;;;;;;;14.25;11.75;;;;;;;;5045114;28;45490;-57
2021/07/02 11:02:12;;;;;;;;;12.25;11.50;;;;;;;;5026489;28;45877;-57
2021/07/02 11:04:37;;;;;;;;;9.00;9.00;;;;;;;;5051326;28;45354;-56
2021/07/02 11:07:23;;;;;;;;;11.33;11.33;;;;;;;;5053996;28;45536;-58
2021/07/02 11:09:57;;;;;;;;;11.75;11.25;;;;;;;;5051124;28;45748;-55
2021/07/02 11:12:23;;;;;;;;;11.25;11.25;;;;;;;;5050510;28;45482;-53
2021/07/02 11:14:51;;;;;;;;;10.25;10.25;;;;;;;;5052859;28;45558;-56
2021/07/02 11:17:27;;;;;;;;;9.75;9.25;;;;;;;;5053569;28;46175;-75
2021/07/02 11:20:08;;;;;;;;;10.00;10.00;;;;;;;;5053520;28;45775;-75
2021/07/02 11:22:38;;;;;;;;;10.00;9.50;;;;;;;;5051077;28;45465;-75
2021/07/02 11:25:05;;;;;;;;;7.00;7.00;;;;;;;;5058567;28;45526;-75
2021/07/02 11:27:41;;;;;;;;;9.25;8.00;;;;;;;;5043493;28;45508;-75
2021/07/02 11:30:30;;;;;;;;;8.50;8.00;;;;;;;;5043920;28;45725;-75
2021/07/02 11:32:57;;;;;;;;;9.75;9.75;;;;;;;;5036355;28;45550;-75
2021/07/02 11:35:22;;;;;;;;;8.00;8.00;;;;;;;;5048916;28;45432;-75
2021/07/02 11:38:13;;;;;;;;;9.00;9.00;;;;;;;;5048593;28;45672;-75
2021/07/02 11:40:38;;;;;;;;;9.50;9.50;;;;;;;;4981477;28;1476919;-76
2021/07/02 11:43:08;;;;;;;;;8.00;8.00;;;;;;;;5053893;28;45411;-74
2021/07/02 11:45:51;;;;;;;;;8.75;8.75;;;;;;;;5050024;28;45553;-76
2021/07/02 11:48:22;;;;;;;;;8.75;8.75;;;;;;;;5052625;28;46184;-75
2021/07/02 11:50:49;;;;;;;;;8.25;8.25;;;;;;;;5044857;28;45481;-75
2021/07/02 11:53:27;;;;;;;;;8.75;8.75;;;;;;;;5051523;28;45504;-75
2021/07/02 11:55:58;;;;;;;;;8.00;7.50;;;;;;;;5051021;28;45589;-75
2021/07/02 11:58:26;;;;;;;;;10.00;9.00;;;;;;;;5051060;28;47157;-74
2021/07/02 12:00:51;;;;;;;;;7.50;7.50;;;;;;;;5045273;28;45524;-75
2021/07/02 12:03:18;;;;;;;;;7.67;7.67;;;;;;;;5050032;28;45370;-75
2021/07/02 12:05:51;;;;;;;;;7.75;5.75;;;;;;;;5050734;28;45560;-74
2021/07/02 12:08:20;;;;;;;;;7.50;7.00;;;;;;;;5052242;28;47635;-75
2021/07/02 12:10:45;;;;;;;;;6.00;6.00;;;;;;;;5064803;27;45754;-75
2021/07/02 12:13:10;;;;;;;;;7.33;6.67;;;;;;;;5052542;28;45423;-74
2021/07/02 12:15:36;;;;;;;;;6.67;6.67;;;;;;;;5053887;28;45751;-74
2021/07/02 12:18:03;;;;;;;;;4.75;4.50;;;;;;;;5052179;28;45558;-75
2021/07/02 12:20:28;;;;;;;;;6.75;6.25;;;;;;;;5052682;28;45421;-75
2021/07/02 12:23:00;;;;;;;;;6.33;6.33;;;;;;;;5052671;28;45346;-74
2021/07/02 12:25:25;;;;;;;;;8.00;6.75;;;;;;;;5052153;28;45470;-74
2021/07/02 12:27:58;;;;;;;;;8.67;8.00;;;;;;;;5046499;28;45350;-75
2021/07/02 12:30:23;;;;;;;;;8.50;8.25;;;;;;;;5050436;28;45501;-74
2021/07/02 12:32:51;;;;;;;;;8.75;8.00;;;;;;;;5050051;28;45574;-76
2021/07/02 12:35:16;;;;;;;;;8.50;8.50;;;;;;;;5050561;28;45426;-74
2021/07/02 12:37:41;;;;;;;;;11.00;7.00;;;;;;;;5049750;28;45960;-75
2021/07/02 12:40:07;;;;;;;;;9.00;6.67;;;;;;;;5060066;28;45930;-75
2021/07/02 12:42:34;;;;;;;;;8.25;8.25;;;;;;;;5049319;28;45559;-75
2021/07/02 12:45:00;;;;;;;;;9.50;9.00;;;;;;;;5051492;28;45466;-74
2021/07/02 12:47:29;;;;;;;;;7.00;6.75;;;;;;;;5049916;28;45690;-73
2021/07/02 12:49:58;;;;;;;;;11.50;8.00;;;;;;;;5049066;28;45697;-73
2021/07/02 12:54:54;;;;;;;;;9.75;8.00;;;;;;;;5051954;28;45485;-63
2021/07/02 12:57:24;;;;;;;;;8.00;8.00;;;;;;;;5048035;28;46521;-63
2021/07/02 12:59:49;;;;;;;;;7.00;7.00;;;;;;;;5052034;28;45713;-71
2021/07/02 13:02:31;;;;;;;;;10.67;9.33;;;;;;;;5051666;28;45697;-63
2021/07/02 13:04:57;;;;;;;;;8.00;8.00;;;;;;;;5051478;28;45456;-64
2021/07/02 13:07:22;;;;;;;;;7.75;7.75;;;;;;;;5051801;28;45658;-63
2021/07/02 13:09:48;;;;;;;;;9.50;8.75;;;;;;;;5052787;28;45449;-63
2021/07/02 13:12:14;;;;;;;;;10.50;10.50;;;;;;;;5049227;28;45614;-64
2021/07/02 13:14:41;;;;;;;;;8.25;8.00;;;;;;;;5051394;28;45396;-64
2021/07/02 13:17:07;;;;;;;;;9.75;5.75;;;;;;;;5057148;28;47042;-74
2021/07/02 13:19:33;;;;;;;;;7.00;7.00;;;;;;;;5051154;28;45840;-64
2021/07/02 13:22:11;;;;;;;;;8.00;8.00;;;;;;;;5053094;28;45525;-63
2021/07/02 13:24:36;;;;;;;;;8.75;8.75;;;;;;;;5051322;28;45459;-62
2021/07/02 13:27:01;;;;;;;;;9.33;8.00;;;;;;;;5051427;28;46135;-62
2021/07/02 13:29:31;;;;;;;;;9.67;9.67;;;;;;;;5050471;28;45418;-62
2021/07/02 13:31:57;;;;;;;;;8.75;8.75;;;;;;;;5048853;28;45457;-62
2021/07/02 13:34:23;;;;;;;;;9.75;9.25;;;;;;;;5051110;28;45423;-62
2021/07/02 13:36:56;;;;;;;;;12.00;10.75;;;;;;;;5052107;28;47711;-63
2021/07/02 13:39:25;;;;;;;;;10.75;10.75;;;;;;;;5050902;28;45891;-62
2021/07/02 13:42:01;;;;;;;;;10.25;10.25;;;;;;;;5040610;28;45662;-64
2021/07/02 13:44:27;;;;;;;;;7.75;7.75;;;;;;;;5046342;28;45580;-61
2021/07/02 13:47:03;;;;;;;;;9.00;9.00;;;;;;;;5039507;28;46310;-61
2021/07/02 13:49:29;;;;;;;;;10.00;10.00;;;;;;;;5039084;28;45763;-63
2021/07/02 13:51:54;;;;;;;;;10.25;9.00;;;;;;;;5045525;28;45281;-63
2021/07/02 13:54:20;;;;;;;;;8.67;8.67;;;;;;;;5049789;28;45470;-80
2021/07/02 13:56:49;;;;;;;;;12.00;11.00;;;;;;;;5045272;28;46602;-75
2021/07/02 13:59:15;;;;;;;;;10.00;10.00;;;;;;;;5059718;28;45581;-77
2021/07/02 14:01:40;;;;;;;;;14.25;10.50;;;;;;;;5053915;28;45514;-76
2021/07/02 14:04:06;;;;;;;;;12.25;9.50;;;;;;;;5042494;28;45756;-76
2021/07/02 14:06:31;;;;;;;;;10.75;9.00;;;;;;;;5043015;28;46179;-76
2021/07/02 14:08:56;;;;;;;;;9.25;9.25;;;;;;;;5041876;28;45458;-76
2021/07/02 14:11:21;;;;;;;;;8.00;8.00;;;;;;;;5048833;28;45465;-74
2021/07/02 14:13:47;;;;;;;;;11.00;9.00;;;;;;;;5047635;28;45497;-74
2021/07/02 14:16:12;;;;;;;;;7.00;7.00;;;;;;;;5053030;28;45480;-75
2021/07/02 14:18:37;;;;;;;;;7.67;7.67;;;;;;;;5046865;28;45477;-76
2021/07/02 14:21:03;;;;;;;;;11.50;10.00;;;;;;;;5046200;28;45471;-73
2021/07/02 14:23:28;;;;;;;;;11.00;7.00;;;;;;;;5056102;27;45329;-77
2021/07/02 14:25:53;;;;;;;;;11.33;9.00;;;;;;;;5059856;28;46114;-76
2021/07/02 14:28:19;;;;;;;;;9.33;9.33;;;;;;;;5037184;28;45481;-77
2021/07/02 14:30:44;;;;;;;;;10.33;7.67;;;;;;;;5054667;28;45489;-77